• Join FlightAware (Why Join?)
  • Login
  • US Flag 
02:33AM EST


 

Airport Tracker/Info


-or-


 

Live Flight TrackerFlight Track Log ✈ N761BT ✈ 17-Oct-2013 ✈ KCRG - KCRG

Flight Track Log - Related Links

Times and Time Zones

All times are in EDT time to prevent confusion due to time zone crossing. See the N761BT flight status page for this flight to view local times or setup timezone preferences in your user account.

Time Position Orientation Groundspeed Altitude Reporting Facility
EDT Latitude Longitude Course Direction KTS MPH feet Rate Location/Type
06:42PM 30.3278 -81.5064 132° Southeast 93 107 500  Level Jacksonville Center
06:43PM 30.3131 -81.4872 132° Southeast 96 110 1,000 540 Climbing Jacksonville Center
06:44PM 30.2897 -81.4661 142° Southeast 109 125 1,500 540 Climbing Jacksonville Center
06:45PM 30.2650 -81.4808 207° Southwest 110 127 2,100 540 Climbing Jacksonville Center
06:46PM 30.2694 -81.5144 279° West 115 132 2,600 420 Climbing Jacksonville Center
06:47PM 30.2844 -81.5528 294° West 119 137 3,000 180 Climbing Jacksonville Center
06:48PM 30.3017 -81.5933 296° West 133 153 3,000  Level Jacksonville Center
06:49PM 30.3208 -81.6342 299° West 133 153 3,000  Level Jacksonville Center
06:50PM 30.3339 -81.6722 292° West 134 154 3,100  Climbing Jacksonville Center
06:51PM 30.3467 -81.7083 292° West 137 158 3,000 -60 Descending Jacksonville Center
06:52PM 30.3594 -81.7467 291° West 138 159 3,000 -60 Level Jacksonville Center
06:53PM 30.3931 -81.7608 340° North 152 175 2,900 -60 Descending Jacksonville Center
06:54PM 30.4303 -81.7314 34° Northeast 157 181 2,900  Level Jacksonville Center
06:55PM 30.4633 -81.6997 40° Northeast 146 168 3,000  Climbing Jacksonville Center
06:56PM 30.4486 -81.6614 114° Southeast 134 154 3,000 -300 Level Jacksonville Center
06:57PM 30.4231 -81.6256 130° Southeast 147 169 2,400 -780 Descending Jacksonville Center
06:58PM 30.3997 -81.5872 125° Southeast 137 158 1,500 -780 Descending Jacksonville Center
06:59PM 30.3744 -81.5586 136° Southeast 109 125 800 -540 Descending Jacksonville Center
07:00PM 30.3553 -81.5372 136° Southeast 92 106 400  Descending Jacksonville Center
07:01PM 30.3383 -81.5158 133° Southeast 93 107 900 540 Climbing Jacksonville Center
07:02PM 30.3319 -81.4847 103° East 115 132 1,500 660 Climbing Jacksonville Center
07:03PM 30.3567 -81.4697 28° Northeast 127 146 2,200 600 Climbing Jacksonville Center
07:04PM 30.3614 -81.5131 277° West 114 131 2,800 360 Climbing Jacksonville Center
07:05PM 30.3575 -81.5492 263° West 116 133 3,000 120 Climbing Jacksonville Center
07:06PM 30.3600 -81.5878 274° West 130 150 3,100  Climbing Jacksonville Center
07:07PM 30.3667 -81.6286 281° West 131 151 3,100 -60 Level Jacksonville Center
07:08PM 30.3692 -81.6767 273° West 135 155 3,000 -60 Descending Jacksonville Center
07:09PM 30.3675 -81.7225 268° West 141 162 3,000  Level Jacksonville Center
07:10PM 30.3867 -81.7536 306° West 138 159 3,000  Level Jacksonville Center
07:11PM 30.4200 -81.7411 18° North 148 170 3,000  Level Jacksonville Center
07:12PM 30.4428 -81.7072 52° Northeast 140 161 3,000  Level Jacksonville Center
07:13PM 30.4506 -81.6708 76° East 138 159 3,000 -240 Level Jacksonville Center
07:14PM 30.4275 -81.6375 129° Southeast 150 173 2,600 -600 Descending Jacksonville Center
07:15PM 30.4061 -81.5992 123° Southeast 144 166 1,900 -720 Descending Jacksonville Center
07:16PM 30.3850 -81.5706 131° Southeast 114 131 1,200 -720 Descending Jacksonville Center
07:17PM 30.3639 -81.5444 133° Southeast 104 120 500 -300 Descending Jacksonville Center
07:18PM 30.3447 -81.5231 136° Southeast 100 115 700 240 Climbing Jacksonville Center
07:19PM 30.3278 -81.5017 133° Southeast 97 112 1,100 120 Climbing Jacksonville Center
07:21PM 30.3278 -81.5017 128° Southeast 97 112 1,100  Level Jacksonville Center